Washington, IA (52353)

8:26 AM CDT on March 29, 2015 (GMT -0500)
Washington Municipal | | Change Station
CLOSE
Current Station
Airport
Location: Washington,
Elevation: 755 ft
Nearby Weather Stations
Active Advisory: Special Statement

Elev 755 ft 41.28 °N, 91.67 °W | Updated 11 minutes ago

Overcast
Overcast
34 °F
Feels Like 21 °F
N
24
Wind Variable Wind from South

Today
High -- | Low -- °F
--% Chance of Precip.
Yesterday
High -- | Low -- °F
Precip. -- in
6:55 AM 7:28 PM
Waxing Gibbous, 71% visible
Pressure 29.91 in
Visibility 9.0 miles
Clouds Few 4800 ft
Mostly Cloudy 9000 ft
Overcast 10000 ft
Windchill 21 °F
Dew Point 34 °F
Humidity 100%
Rainfall 0.03 in
Snow Depth Not available.
UV 0 out of 12
Pollen 6.30 out of 12
Air Quality Not available.
Flu Activity Not available.
METAR KAWG 291315Z AUTO 18021KT 9SM FEW048 BKN090 OVC100 01/01 A2991 RMK AO2

More Conditions Fewer Conditions

Pressure 29.91 in
Visibility 9.0 miles
Clouds Few 4800 ft
Mostly Cloudy 9000 ft
Overcast 10000 ft
Windchill 21 °F
Dew Point 34 °F
Humidity 100%
Rainfall 0.03 in
Snow Depth Not available.
UV 0 out of 12
Pollen 6.30 out of 12
Air Quality Not available.
Flu Activity Not available.
METAR KAWG 291315Z AUTO 18021KT 9SM FEW048 BKN090 OVC100 01/01 A2991 RMK AO2

More Conditions Fewer Conditions

10-Day Weather Forecast

Almanac

Astronomy

Mar. 29, 2015 Rise Set
Actual Time
Civil Twilight
Nautical Twilight
Astronomical Twilight
Moon
Length of Visible Light
Length of Day
Tomorrow will be .
, % of the Moon is Illuminated

Today's Extremes

State Highs State Lows

Community

WunderPhotos

Upload Photos

1,809,233 photos uploaded!

WunderBlogs® & News

Nearby

Air Quality

  Air Quality AQ Index Pollutant
Not available.

Snow Depth

Station Depth Elevation

Earthquake Activity

City Distance Mag. Time & Date
Minimum magnitude displayed is 2.5.

Coastal Water Temperatures

Place Temperature

Stations

Nearby Weather Stations

Station Location Temp. Windchill Dew Point Humidity Wind Precip. Elev Updated Type
                   
Special Statement
Statement as of 5:16 AM CDT on March 29, 2015

... Brief wintry mix this morning...

An area of rain is moving across Iowa and will move into illionis
between 6 and 7 am. With temperatures hovering near or at freezing
across the area... freezing rain is possible. Little to no ice
accumulation are expected at this time. The freezing rain will
transition to all rain shortly after it begins as temperatures
continue to rise. Those who are travelling this morning should be
alert for possible slippery conditions. Temperatures will warm
above freezing quickly this morning... so any accumulation of ice
should melt this morning.